createdAt,value
2023-01-19T00:01:47.931Z,100.00
2023-01-19T00:04:15.867Z,100.00
2023-01-19T00:06:43.812Z,100.00
2023-01-19T00:09:11.761Z,100.00
2023-01-19T00:11:39.763Z,100.00
2023-01-19T00:14:07.707Z,100.00
2023-01-19T00:16:37.142Z,100.00
2023-01-19T00:19:05.584Z,100.00
2023-01-19T00:21:33.471Z,100.00
2023-01-19T00:24:01.409Z,99.37
2023-01-19T00:26:29.291Z,98.63
2023-01-19T00:28:57.799Z,99.78
2023-01-19T00:31:25.724Z,99.84
2023-01-19T00:33:55.028Z,98.94
2023-01-19T00:36:22.964Z,97.81
2023-01-19T00:38:50.963Z,94.84
2023-01-19T00:41:19.138Z,94.45
2023-01-19T00:43:46.085Z,94.28
2023-01-19T00:46:14.040Z,94.36
2023-01-19T00:48:42.000Z,93.89
2023-01-19T00:51:11.301Z,92.91
2023-01-19T00:53:39.861Z,92.73
2023-01-19T00:56:08.710Z,88.57
2023-01-19T00:58:36.714Z,81.88
2023-01-19T01:01:05.024Z,78.77
2023-01-19T01:03:33.250Z,76.67
2023-01-19T01:06:01.537Z,75.59
2023-01-19T01:08:31.073Z,72.91
2023-01-19T01:10:59.032Z,71.32
2023-01-19T01:13:27.894Z,70.87
2023-01-19T01:15:57.115Z,69.77
2023-01-19T01:18:25.358Z,74.01
2023-01-19T01:20:55.324Z,78.44
2023-01-19T01:23:24.256Z,78.67
2023-01-19T01:25:53.523Z,82.54
2023-01-19T01:28:21.560Z,83.24
2023-01-19T01:30:49.593Z,85.16
2023-01-19T01:33:39.989Z,86.83
2023-01-19T01:36:06.165Z,92.89
2023-01-19T01:38:34.172Z,94.86
2023-01-19T01:41:03.633Z,95.20
2023-01-19T01:43:44.966Z,97.63
2023-01-19T01:46:15.487Z,99.96
2023-01-19T01:48:47.426Z,100.00
2023-01-19T01:51:25.922Z,100.00
2023-01-19T01:54:02.041Z,100.00
2023-01-19T01:56:35.999Z,100.00
2023-01-19T01:59:08.074Z,100.00
2023-01-19T02:01:54.535Z,100.00
2023-01-19T02:04:24.237Z,100.00
2023-01-19T02:07:09.750Z,99.71
2023-01-19T02:09:56.706Z,100.00
2023-01-19T02:12:43.886Z,100.00
2023-01-19T02:15:20.816Z,100.00
2023-01-19T02:17:49.165Z,100.00
2023-01-19T02:20:18.026Z,98.49
2023-01-19T02:22:49.591Z,98.33
2023-01-19T02:25:20.625Z,97.58
2023-01-19T02:27:49.300Z,96.37
2023-01-19T02:30:18.963Z,96.37
2023-01-19T02:32:47.139Z,95.43
2023-01-19T02:35:15.259Z,94.93
2023-01-19T02:37:45.230Z,94.33
2023-01-19T02:40:20.371Z,94.49
2023-01-19T02:42:53.233Z,94.82
2023-01-19T02:45:23.423Z,95.15
2023-01-19T02:47:53.527Z,95.19
2023-01-19T02:50:43.780Z,95.54
2023-01-19T02:53:33.200Z,95.50
2023-01-19T02:56:12.515Z,95.71
2023-01-19T02:58:49.108Z,94.80
2023-01-19T03:01:28.226Z,94.80
2023-01-19T03:04:00.573Z,95.21
2023-01-19T03:06:42.630Z,96.65
2023-01-19T03:09:14.864Z,97.58
2023-01-19T03:11:49.214Z,97.55
2023-01-19T03:14:24.387Z,96.06
2023-01-19T03:16:57.211Z,95.77
2023-01-19T03:19:28.415Z,97.56
2023-01-19T03:21:59.550Z,96.62
2023-01-19T03:24:32.019Z,96.51
2023-01-19T03:27:04.248Z,95.77
2023-01-19T03:29:36.037Z,97.33
2023-01-19T03:32:09.169Z,98.76
2023-01-19T03:34:39.392Z,99.56
2023-01-19T03:37:11.443Z,99.01
2023-01-19T03:39:39.685Z,98.85
2023-01-19T03:42:12.898Z,95.04
2023-01-19T03:44:44.915Z,91.53
2023-01-19T03:47:15.887Z,91.83
2023-01-19T03:49:46.424Z,91.99
2023-01-19T03:52:14.381Z,91.51
2023-01-19T03:54:42.339Z,92.58
2023-01-19T03:57:10.358Z,92.75
2023-01-19T03:59:38.309Z,92.14
2023-01-19T04:02:07.706Z,91.00
2023-01-19T04:04:35.718Z,90.30
2023-01-19T04:07:03.549Z,90.28
2023-01-19T04:09:31.554Z,90.16
2023-01-19T04:12:01.601Z,91.00
2023-01-19T04:14:29.558Z,91.50
2023-01-19T04:16:57.472Z,92.39
2023-01-19T04:19:26.870Z,92.70
2023-01-19T04:21:55.674Z,93.21
2023-01-19T04:24:23.631Z,96.01
2023-01-19T04:26:53.467Z,96.23
2023-01-19T04:29:21.431Z,95.76
2023-01-19T04:31:49.306Z,96.75
2023-01-19T04:34:17.594Z,96.68
2023-01-19T04:36:47.025Z,95.86
2023-01-19T04:39:15.131Z,95.20
2023-01-19T04:41:43.513Z,94.68
2023-01-19T04:44:11.477Z,95.73
2023-01-19T04:46:39.393Z,97.10
2023-01-19T04:49:07.439Z,96.15
2023-01-19T04:51:35.628Z,95.95
2023-01-19T04:54:05.180Z,96.91
2023-01-19T04:56:33.157Z,97.73
2023-01-19T04:59:01.101Z,97.28
2023-01-19T05:01:29.382Z,97.00
2023-01-19T05:03:59.926Z,96.24
2023-01-19T05:06:27.912Z,96.18
2023-01-19T05:08:55.857Z,97.55
2023-01-19T05:11:25.630Z,97.24
2023-01-19T05:13:53.808Z,96.50
2023-01-19T05:16:21.763Z,96.99
2023-01-19T05:18:49.742Z,95.77
2023-01-19T05:21:17.669Z,96.92
2023-01-19T05:23:45.690Z,97.02
2023-01-19T05:26:14.045Z,97.05
2023-01-19T05:28:43.292Z,95.75
2023-01-19T05:31:11.287Z,96.77
2023-01-19T05:33:39.332Z,94.30
2023-01-19T05:36:07.711Z,92.96
2023-01-19T05:38:36.224Z,92.50
2023-01-19T05:41:04.498Z,91.12
2023-01-19T05:43:32.343Z,89.79
2023-01-19T05:46:01.692Z,89.00
2023-01-19T05:48:29.577Z,88.65
2023-01-19T05:51:01.581Z,87.69
2023-01-19T05:53:30.180Z,88.14
2023-01-19T05:56:01.648Z,87.46
2023-01-19T05:58:29.953Z,86.42
2023-01-19T06:00:57.989Z,88.19
2023-01-19T06:03:27.301Z,89.35
2023-01-19T06:05:57.990Z,89.06
2023-01-19T06:08:26.122Z,89.33
2023-01-19T06:10:54.224Z,89.51
2023-01-19T06:13:22.420Z,88.83
2023-01-19T06:15:50.449Z,88.22
2023-01-19T06:18:18.543Z,89.05
2023-01-19T06:20:47.807Z,89.71
2023-01-19T06:23:15.797Z,89.98
2023-01-19T06:25:43.758Z,89.60
2023-01-19T06:28:11.731Z,89.53
2023-01-19T06:30:40.530Z,90.79
2023-01-19T06:33:08.508Z,91.94
2023-01-19T06:35:36.967Z,93.50
2023-01-19T06:38:06.275Z,94.49
2023-01-19T06:40:34.126Z,94.15
2023-01-19T06:43:02.325Z,95.09
2023-01-19T06:45:30.669Z,95.31
2023-01-19T06:47:58.614Z,94.66
2023-01-19T06:50:26.699Z,95.04
2023-01-19T06:52:54.889Z,95.01
2023-01-19T06:55:24.372Z,93.34
2023-01-19T06:57:58.932Z,92.21
2023-01-19T07:00:27.881Z,92.05
2023-01-19T07:02:56.209Z,91.82
2023-01-19T07:05:24.499Z,92.03
2023-01-19T07:07:53.319Z,90.72
2023-01-19T07:10:21.797Z,90.47
2023-01-19T07:12:51.353Z,90.10
2023-01-19T07:15:22.654Z,89.79
2023-01-19T07:17:50.726Z,88.62
2023-01-19T07:20:19.700Z,87.49
2023-01-19T07:22:47.773Z,86.29
2023-01-19T07:25:16.263Z,84.40
2023-01-19T07:27:45.108Z,84.55
2023-01-19T07:30:16.101Z,83.49
2023-01-19T07:32:44.084Z,83.29
2023-01-19T07:35:12.179Z,83.46
2023-01-19T07:37:40.325Z,83.45
2023-01-19T07:40:09.378Z,83.03
2023-01-19T07:42:38.111Z,82.91
2023-01-19T07:45:06.938Z,83.08
2023-01-19T07:47:36.309Z,82.57
2023-01-19T07:50:04.612Z,81.56
2023-01-19T07:52:32.473Z,81.19
2023-01-19T07:55:00.403Z,81.24
2023-01-19T07:57:28.553Z,81.02
2023-01-19T07:59:56.479Z,79.35
2023-01-19T08:02:25.536Z,79.19
2023-01-19T08:04:55.190Z,78.57
2023-01-19T08:07:23.203Z,78.33
2023-01-19T08:09:51.329Z,77.17
2023-01-19T08:12:19.243Z,77.02
2023-01-19T08:14:47.184Z,76.92
2023-01-19T08:17:15.256Z,76.57
2023-01-19T08:19:43.950Z,75.85
2023-01-19T08:22:13.259Z,75.30
2023-01-19T08:24:41.201Z,73.18
2023-01-19T08:27:12.223Z,72.08
2023-01-19T08:29:40.500Z,71.72
2023-01-19T08:32:08.535Z,70.12
2023-01-19T08:34:36.645Z,69.35
2023-01-19T08:37:04.630Z,69.75
2023-01-19T08:39:33.883Z,69.33
2023-01-19T08:42:01.750Z,69.97
2023-01-19T08:44:29.677Z,67.27
2023-01-19T08:46:57.599Z,67.03
2023-01-19T08:49:25.572Z,66.54
2023-01-19T08:51:53.513Z,64.88
2023-01-19T08:54:23.153Z,63.74
2023-01-19T08:56:52.612Z,63.58
2023-01-19T08:59:20.608Z,62.81
2023-01-19T09:01:48.804Z,62.17
2023-01-19T09:04:16.807Z,60.20
2023-01-19T09:06:44.905Z,59.52
2023-01-19T09:09:12.902Z,58.50
2023-01-19T09:11:40.870Z,58.16
2023-01-19T09:14:10.171Z,58.48
2023-01-19T09:16:38.192Z,57.31
2023-01-19T09:19:08.605Z,57.94
2023-01-19T09:21:36.821Z,57.93
2023-01-19T09:24:05.160Z,57.86
2023-01-19T09:26:33.343Z,57.16
2023-01-19T09:29:01.312Z,57.18
2023-01-19T09:31:30.695Z,56.97
2023-01-19T09:33:58.610Z,55.58
2023-01-19T09:36:26.632Z,56.09
2023-01-19T09:38:54.569Z,54.24
2023-01-19T09:41:25.126Z,52.33
2023-01-19T09:43:57.918Z,52.13
2023-01-19T09:46:34.628Z,51.33
2023-01-19T09:49:06.710Z,49.24
2023-01-19T09:51:38.524Z,49.79
2023-01-19T09:54:14.178Z,49.40
2023-01-19T09:56:43.043Z,46.98
2023-01-19T09:59:20.561Z,46.87
2023-01-19T10:02:10.463Z,46.45
2023-01-19T10:04:42.237Z,46.62
2023-01-19T10:07:23.889Z,47.18
2023-01-19T10:10:04.467Z,47.79
2023-01-19T10:12:42.805Z,49.13
2023-01-19T10:15:20.620Z,50.06
2023-01-19T10:17:57.210Z,49.76
2023-01-19T10:20:33.420Z,49.76
2023-01-19T10:23:03.292Z,50.35
2023-01-19T10:25:32.357Z,49.79
2023-01-19T10:28:01.907Z,48.74
2023-01-19T10:30:30.832Z,47.45
2023-01-19T10:33:00.525Z,45.35
2023-01-19T10:35:29.516Z,45.07
2023-01-19T10:38:02.018Z,44.76
2023-01-19T10:40:34.897Z,44.69
2023-01-19T10:43:03.210Z,44.16
2023-01-19T10:45:32.780Z,42.95
2023-01-19T10:48:07.491Z,43.79
2023-01-19T10:50:39.793Z,42.48
2023-01-19T10:53:20.496Z,41.91
2023-01-19T10:55:48.596Z,41.27
2023-01-19T10:58:30.098Z,40.13
2023-01-19T11:01:14.932Z,39.19
2023-01-19T11:03:44.603Z,39.59
2023-01-19T11:06:30.907Z,39.13
2023-01-19T11:09:13.667Z,39.25
2023-01-19T11:11:47.503Z,38.01
2023-01-19T11:14:19.429Z,37.14
2023-01-19T11:16:49.997Z,36.85
2023-01-19T11:19:27.168Z,33.63
2023-01-19T11:22:10.778Z,34.85
2023-01-19T11:24:40.264Z,35.61
2023-01-19T11:27:08.473Z,34.58
2023-01-19T11:29:39.011Z,35.31
2023-01-19T11:32:20.353Z,34.45
2023-01-19T11:34:50.830Z,34.37
2023-01-19T11:37:30.987Z,34.80
2023-01-19T11:40:02.934Z,35.57
2023-01-19T11:42:34.054Z,35.48
2023-01-19T11:45:07.183Z,33.20
2023-01-19T11:47:41.292Z,29.31
2023-01-19T11:50:16.624Z,29.66
2023-01-19T11:52:48.976Z,28.63
2023-01-19T11:55:23.823Z,28.92
2023-01-19T11:57:54.746Z,28.34
2023-01-19T12:00:29.284Z,28.75
2023-01-19T12:03:04.241Z,28.47
2023-01-19T12:05:36.881Z,27.96
2023-01-19T12:08:08.688Z,28.29
2023-01-19T12:10:41.679Z,28.16
2023-01-19T12:13:22.312Z,28.17
2023-01-19T12:15:54.531Z,27.54
2023-01-19T12:18:25.430Z,27.17
2023-01-19T12:20:57.068Z,27.56
2023-01-19T12:23:33.613Z,27.47
2023-01-19T12:26:23.036Z,27.50
2023-01-19T12:28:53.495Z,27.14
2023-01-19T12:31:23.828Z,27.11
2023-01-19T12:33:52.357Z,27.27
2023-01-19T12:36:39.496Z,27.19
2023-01-19T12:39:18.020Z,27.05
2023-01-19T12:41:47.183Z,26.81
2023-01-19T12:44:34.245Z,26.92
2023-01-19T12:47:20.270Z,27.38
2023-01-19T12:49:51.695Z,27.14
2023-01-19T12:52:28.107Z,26.86
2023-01-19T12:55:03.448Z,27.44
2023-01-19T12:57:35.456Z,27.56
2023-01-19T13:00:07.110Z,27.91
2023-01-19T13:02:54.406Z,28.35
2023-01-19T13:05:41.725Z,28.26
2023-01-19T13:08:22.388Z,28.26
2023-01-19T13:11:23.819Z,28.08
2023-01-19T13:14:35.551Z,27.74
2023-01-19T13:17:19.687Z,28.41
2023-01-19T13:20:20.326Z,28.38
2023-01-19T13:23:20.882Z,29.24
2023-01-19T13:25:53.935Z,29.50
2023-01-19T13:28:31.662Z,29.38
2023-01-19T13:31:02.783Z,28.79
2023-01-19T13:33:40.839Z,29.16
2023-01-19T13:36:21.019Z,29.61
2023-01-19T13:38:50.822Z,29.82
2023-01-19T13:41:24.564Z,30.34
2023-01-19T13:43:59.796Z,29.96
2023-01-19T13:46:28.723Z,30.05
2023-01-19T13:48:59.191Z,30.28
2023-01-19T13:51:27.154Z,30.46
2023-01-19T13:53:56.324Z,31.01
2023-01-19T13:56:28.554Z,31.03
2023-01-19T13:59:09.893Z,30.77
2023-01-19T14:01:40.052Z,32.06
2023-01-19T14:04:24.958Z,31.70
2023-01-19T14:06:55.606Z,31.94
2023-01-19T14:09:23.927Z,30.81
2023-01-19T14:12:14.398Z,31.40
2023-01-19T14:14:43.518Z,31.03
2023-01-19T14:17:26.542Z,31.60
2023-01-19T14:19:56.199Z,31.69
2023-01-19T14:22:40.262Z,30.92
2023-01-19T14:25:28.761Z,31.09
2023-01-19T14:28:39.370Z,30.96
2023-01-19T14:31:21.166Z,31.53
2023-01-19T14:33:51.310Z,32.24
2023-01-19T14:36:29.947Z,33.33
2023-01-19T14:39:00.080Z,33.31
2023-01-19T14:41:32.357Z,33.23
2023-01-19T14:44:02.091Z,33.18
2023-01-19T14:46:30.522Z,34.29
2023-01-19T14:49:03.327Z,33.98
2023-01-19T14:51:32.257Z,33.43
2023-01-19T14:54:02.143Z,33.65
2023-01-19T14:56:31.828Z,34.25
2023-01-19T14:59:02.685Z,34.27
2023-01-19T15:01:31.356Z,33.89
2023-01-19T15:03:59.680Z,33.73
2023-01-19T15:06:27.896Z,35.37
2023-01-19T15:08:56.288Z,34.56
2023-01-19T15:11:27.684Z,34.62
2023-01-19T15:13:55.748Z,35.24
2023-01-19T15:16:25.569Z,34.88
2023-01-19T15:18:53.597Z,35.12
2023-01-19T15:21:26.585Z,35.08
2023-01-19T15:23:55.471Z,35.48
2023-01-19T15:26:25.510Z,35.47
2023-01-19T15:28:53.894Z,36.31
2023-01-19T15:31:25.717Z,36.37
2023-01-19T15:33:53.703Z,36.73
2023-01-19T15:36:24.185Z,36.80
2023-01-19T15:38:52.237Z,36.55
2023-01-19T15:41:26.858Z,36.81
2023-01-19T15:43:54.992Z,38.94
2023-01-19T15:46:25.339Z,37.54
2023-01-19T15:48:54.476Z,37.63
2023-01-19T15:51:25.183Z,38.14
2023-01-19T15:53:54.374Z,37.51
2023-01-19T15:56:24.788Z,38.12
2023-01-19T15:58:53.453Z,38.00
2023-01-19T16:01:23.111Z,38.32
2023-01-19T16:03:52.518Z,38.09
2023-01-19T16:06:20.464Z,38.08
2023-01-19T16:08:48.415Z,38.48
2023-01-19T16:11:18.560Z,38.16
2023-01-19T16:13:47.345Z,38.93
2023-01-19T16:16:18.218Z,38.45
2023-01-19T16:18:46.184Z,38.86
2023-01-19T16:21:15.551Z,38.63
2023-01-19T16:23:43.690Z,39.15
2023-01-19T16:26:26.124Z,39.85
2023-01-19T16:28:54.267Z,39.72
2023-01-19T16:31:22.211Z,39.85
2023-01-19T16:33:50.460Z,40.06
2023-01-19T16:36:25.884Z,40.85
2023-01-19T16:38:54.292Z,40.05
2023-01-19T16:41:22.477Z,40.31
2023-01-19T16:43:54.379Z,39.61
2023-01-19T16:46:24.595Z,40.42
2023-01-19T16:48:53.118Z,41.16
2023-01-19T16:51:22.397Z,41.93
2023-01-19T16:53:50.664Z,42.48
2023-01-19T16:56:19.015Z,43.77
2023-01-19T16:58:47.211Z,44.19
2023-01-19T17:01:19.925Z,45.02
2023-01-19T17:03:48.712Z,45.60
2023-01-19T17:06:20.125Z,45.55
2023-01-19T17:08:50.326Z,46.09
2023-01-19T17:11:20.843Z,46.86
2023-01-19T17:13:49.088Z,48.04
2023-01-19T17:16:17.031Z,50.08
2023-01-19T17:18:45.059Z,53.67
2023-01-19T17:21:14.159Z,56.17
2023-01-19T17:23:43.915Z,57.63
2023-01-19T17:26:13.224Z,57.09
2023-01-19T17:28:42.006Z,54.21
2023-01-19T17:31:12.541Z,53.78
2023-01-19T17:33:41.540Z,54.03
2023-01-19T17:36:12.501Z,54.20
2023-01-19T17:38:41.398Z,53.42
2023-01-19T17:41:18.512Z,53.55
2023-01-19T17:43:46.788Z,53.68
2023-01-19T17:46:15.104Z,56.73
2023-01-19T17:48:43.193Z,57.54
2023-01-19T17:51:13.087Z,56.05
2023-01-19T17:53:42.698Z,57.73
2023-01-19T17:56:13.115Z,59.03
2023-01-19T17:58:42.873Z,58.18
2023-01-19T18:01:11.584Z,56.60
2023-01-19T18:03:39.693Z,57.26
2023-01-19T18:06:08.436Z,58.42
2023-01-19T18:08:38.981Z,60.08
2023-01-19T18:11:07.608Z,60.63
2023-01-19T18:13:35.780Z,60.50
2023-01-19T18:16:07.179Z,61.08
2023-01-19T18:18:36.024Z,60.79
2023-01-19T18:21:06.253Z,59.51
2023-01-19T18:23:34.774Z,59.55
2023-01-19T18:26:04.311Z,58.54
2023-01-19T18:28:33.179Z,59.36
2023-01-19T18:31:01.540Z,59.99
2023-01-19T18:33:32.262Z,60.45
2023-01-19T18:36:00.255Z,60.42
2023-01-19T18:38:28.302Z,61.27
2023-01-19T18:41:04.022Z,60.45
2023-01-19T18:43:32.402Z,60.33
2023-01-19T18:46:00.644Z,59.89
2023-01-19T18:48:30.279Z,59.70
2023-01-19T18:51:03.272Z,59.63
2023-01-19T18:53:32.458Z,59.89
2023-01-19T18:56:03.301Z,59.78
2023-01-19T18:58:32.558Z,59.78
2023-01-19T19:01:02.028Z,61.23
2023-01-19T19:03:31.581Z,62.20
2023-01-19T19:06:03.760Z,62.43
2023-01-19T19:08:31.862Z,62.38
2023-01-19T19:10:59.815Z,62.76
2023-01-19T19:13:27.774Z,62.46
2023-01-19T19:15:58.058Z,62.24
2023-01-19T19:18:26.074Z,61.40
2023-01-19T19:20:55.403Z,60.37
2023-01-19T19:23:23.428Z,60.53
2023-01-19T19:25:51.357Z,60.30
2023-01-19T19:28:19.525Z,60.90
2023-01-19T19:30:51.424Z,58.87
2023-01-19T19:33:19.418Z,55.71
2023-01-19T19:35:48.128Z,53.96
2023-01-19T19:38:17.460Z,53.19
2023-01-19T19:40:45.432Z,55.90
2023-01-19T19:43:13.339Z,57.99
2023-01-19T19:45:41.317Z,59.00
2023-01-19T19:48:09.215Z,58.71
2023-01-19T19:50:37.161Z,59.30
2023-01-19T19:53:05.048Z,58.75
2023-01-19T19:55:34.376Z,58.34
2023-01-19T19:58:03.494Z,57.99
2023-01-19T20:00:31.507Z,56.84
2023-01-19T20:02:59.466Z,57.07
2023-01-19T20:05:27.440Z,57.10
2023-01-19T20:07:55.376Z,54.18
2023-01-19T20:10:25.086Z,53.41
2023-01-19T20:12:54.387Z,51.27
2023-01-19T20:15:22.400Z,50.92
2023-01-19T20:17:50.347Z,51.27
2023-01-19T20:20:18.673Z,50.58
2023-01-19T20:22:46.565Z,50.75
2023-01-19T20:25:14.919Z,50.53
2023-01-19T20:27:44.957Z,50.60
2023-01-19T20:30:15.058Z,50.77
2023-01-19T20:32:43.043Z,50.82
2023-01-19T20:35:13.528Z,51.34
2023-01-19T20:37:41.664Z,50.83
2023-01-19T20:40:10.887Z,50.27
2023-01-19T20:42:41.340Z,48.97
2023-01-19T20:45:10.038Z,49.66
2023-01-19T20:47:39.628Z,52.34
2023-01-19T20:50:08.730Z,54.22
2023-01-19T20:52:36.871Z,57.59
2023-01-19T20:55:07.480Z,60.43
2023-01-19T20:57:35.571Z,59.72
2023-01-19T21:00:03.513Z,61.05
2023-01-19T21:02:31.581Z,61.26
2023-01-19T21:05:00.948Z,61.61
2023-01-19T21:07:28.809Z,57.51
2023-01-19T21:09:56.844Z,51.44
2023-01-19T21:12:24.745Z,50.52
2023-01-19T21:14:52.749Z,51.57
2023-01-19T21:17:20.619Z,53.66
2023-01-19T21:19:48.635Z,56.85
2023-01-19T21:22:17.909Z,58.76
2023-01-19T21:24:45.836Z,59.27
2023-01-19T21:27:13.820Z,59.32
2023-01-19T21:29:41.888Z,58.98
2023-01-19T21:32:09.800Z,59.99
2023-01-19T21:34:37.901Z,58.68
2023-01-19T21:37:05.880Z,59.05
2023-01-19T21:39:35.127Z,56.00
2023-01-19T21:42:03.089Z,53.48
2023-01-19T21:44:31.105Z,52.90
2023-01-19T21:46:59.063Z,53.77
2023-01-19T21:49:26.973Z,58.92
2023-01-19T21:51:55.332Z,60.11
2023-01-19T21:54:23.230Z,62.10
2023-01-19T21:56:52.497Z,63.68
2023-01-19T21:59:20.615Z,61.64
2023-01-19T22:01:48.625Z,51.64
2023-01-19T22:04:16.638Z,49.04
2023-01-19T22:06:44.614Z,49.10
2023-01-19T22:09:12.516Z,52.72
2023-01-19T22:11:40.616Z,54.60
2023-01-19T22:14:25.166Z,57.33
2023-01-19T22:16:53.154Z,57.24
2023-01-19T22:19:21.099Z,56.84
2023-01-19T22:21:49.249Z,56.91
2023-01-19T22:24:17.257Z,58.05
2023-01-19T22:26:45.159Z,59.66
2023-01-19T22:29:13.415Z,60.43
2023-01-19T22:31:43.192Z,62.24
2023-01-19T22:34:11.837Z,64.67
2023-01-19T22:36:39.762Z,64.77
2023-01-19T22:39:09.282Z,66.42
2023-01-19T22:41:39.460Z,67.36
2023-01-19T22:44:10.018Z,65.32
2023-01-19T22:46:38.781Z,63.95
2023-01-19T22:49:09.626Z,64.18
2023-01-19T22:51:37.854Z,63.88
2023-01-19T22:54:06.214Z,64.29
2023-01-19T22:56:36.285Z,63.78
2023-01-19T22:59:05.698Z,63.74
2023-01-19T23:01:35.592Z,63.15
2023-01-19T23:04:04.673Z,62.24
2023-01-19T23:06:35.648Z,61.04
2023-01-19T23:09:09.102Z,60.04
2023-01-19T23:11:39.322Z,59.12
2023-01-19T23:14:09.609Z,59.15
2023-01-19T23:16:37.509Z,58.90
2023-01-19T23:19:06.034Z,58.33
2023-01-19T23:21:35.252Z,58.01
2023-01-19T23:24:04.827Z,57.29
2023-01-19T23:26:38.051Z,57.23
2023-01-19T23:29:08.273Z,55.74
2023-01-19T23:31:38.449Z,55.16
2023-01-19T23:34:08.059Z,52.68
2023-01-19T23:36:39.143Z,53.28
2023-01-19T23:39:10.139Z,53.70
2023-01-19T23:41:38.114Z,50.49
2023-01-19T23:44:06.653Z,45.43
2023-01-19T23:46:34.671Z,44.95
2023-01-19T23:49:02.597Z,48.11
2023-01-19T23:51:31.928Z,49.01
2023-01-19T23:54:02.012Z,47.71
2023-01-19T23:56:32.195Z,48.10
2023-01-19T23:59:01.467Z,46.91
